createdAt,value
2019-01-23T00:00:49.669Z,-5.99
2019-01-23T00:03:21.080Z,-6.03
2019-01-23T00:05:52.171Z,-6.08
2019-01-23T00:08:23.920Z,-6.07
2019-01-23T00:10:55.393Z,-6.08
2019-01-23T00:13:26.671Z,-6.08
2019-01-23T00:15:57.772Z,-6.13
2019-01-23T00:18:29.348Z,-6.15
2019-01-23T00:21:00.737Z,-6.18
2019-01-23T00:23:32.227Z,-6.17
2019-01-23T00:26:03.158Z,-6.18
2019-01-23T00:28:33.786Z,-6.13
2019-01-23T00:31:04.891Z,-6.13
2019-01-23T00:33:35.789Z,-6.19
2019-01-23T00:36:06.781Z,-6.23
2019-01-23T00:38:37.445Z,-6.30
2019-01-23T00:41:08.205Z,-6.32
2019-01-23T00:43:38.805Z,-6.38
2019-01-23T00:46:09.502Z,-6.47
2019-01-23T00:48:40.134Z,-6.47
2019-01-23T00:51:10.743Z,-6.43
2019-01-23T00:53:41.995Z,-6.38
2019-01-23T00:56:13.095Z,-6.44
2019-01-23T00:58:49.168Z,-6.39
2019-01-23T01:01:17.045Z,-6.49
2019-01-23T01:03:48.097Z,-6.50
2019-01-23T01:06:19.160Z,-6.47
2019-01-23T01:08:50.427Z,-6.51
2019-01-23T01:11:21.688Z,-6.51
2019-01-23T01:13:52.849Z,-6.59
2019-01-23T01:16:24.008Z,-6.56
2019-01-23T01:18:55.077Z,-6.54
2019-01-23T01:21:27.105Z,-6.56
2019-01-23T01:23:57.829Z,-6.62
2019-01-23T01:26:29.791Z,-6.64
2019-01-23T01:29:00.408Z,-6.65
2019-01-23T01:31:31.481Z,-6.68
2019-01-23T01:34:02.721Z,-6.71
2019-01-23T01:36:34.871Z,-6.69
2019-01-23T01:39:09.604Z,-6.78
2019-01-23T01:41:41.084Z,-6.77
2019-01-23T01:44:12.176Z,-6.84
2019-01-23T01:46:43.676Z,-6.87
2019-01-23T01:49:15.044Z,-6.89
2019-01-23T01:51:46.160Z,-6.99
2019-01-23T01:54:18.004Z,-7.03
2019-01-23T01:56:49.492Z,-7.04
2019-01-23T01:59:20.935Z,-7.02
2019-01-23T02:01:51.608Z,-7.01
2019-01-23T02:04:22.145Z,-6.98
2019-01-23T02:06:53.094Z,-7.07
2019-01-23T02:09:23.800Z,-6.99
2019-01-23T02:11:55.211Z,-7.17
2019-01-23T02:14:26.684Z,-7.19
2019-01-23T02:16:57.897Z,-7.13
2019-01-23T02:19:31.728Z,-7.16
2019-01-23T02:22:03.155Z,-7.20
2019-01-23T02:24:34.410Z,-7.27
2019-01-23T02:27:06.946Z,-7.29
2019-01-23T02:29:38.418Z,-7.21
2019-01-23T02:32:10.467Z,-7.28
2019-01-23T02:34:42.443Z,-7.31
2019-01-23T02:37:13.495Z,-7.36
2019-01-23T02:39:44.608Z,-7.39
2019-01-23T02:42:15.341Z,-7.41
2019-01-23T02:44:46.295Z,-7.35
2019-01-23T02:47:17.276Z,-7.39
2019-01-23T02:49:48.413Z,-7.37
2019-01-23T02:52:19.716Z,-7.39
2019-01-23T02:54:50.568Z,-7.40
2019-01-23T02:57:21.737Z,-7.37
2019-01-23T02:59:53.693Z,-7.39
2019-01-23T03:02:25.921Z,-7.40
2019-01-23T03:04:57.754Z,-7.42
2019-01-23T03:07:28.984Z,-7.49
2019-01-23T03:10:00.591Z,-7.47
2019-01-23T03:12:31.844Z,-7.50
2019-01-23T03:15:03.001Z,-7.51
2019-01-23T03:17:34.559Z,-7.50
2019-01-23T03:20:07.087Z,-7.52
2019-01-23T03:22:38.639Z,-7.51
2019-01-23T03:25:11.500Z,-7.51
2019-01-23T03:27:43.029Z,-7.57
2019-01-23T03:30:17.868Z,-7.55
2019-01-23T03:32:49.466Z,-7.56
2019-01-23T03:35:20.757Z,-7.57
2019-01-23T03:37:51.499Z,-7.57
2019-01-23T03:40:23.226Z,-7.60
2019-01-23T03:42:53.964Z,-7.61
2019-01-23T03:45:24.750Z,-7.61
2019-01-23T03:47:56.097Z,-7.60
2019-01-23T03:50:27.664Z,-7.61
2019-01-23T03:52:59.627Z,-7.64
2019-01-23T03:55:30.832Z,-7.64
2019-01-23T03:58:02.009Z,-7.72
2019-01-23T04:00:33.239Z,-7.73
2019-01-23T04:03:05.549Z,-7.71
2019-01-23T04:05:37.089Z,-7.73
2019-01-23T04:08:08.153Z,-7.76
2019-01-23T04:10:39.457Z,-7.81
2019-01-23T04:13:10.105Z,-7.80
2019-01-23T04:15:40.824Z,-7.81
2019-01-23T04:18:11.997Z,-7.85
2019-01-23T04:20:42.999Z,-7.90
2019-01-23T04:23:14.135Z,-7.84
2019-01-23T04:25:48.999Z,-7.87
2019-01-23T04:28:20.132Z,-7.86
2019-01-23T04:30:51.319Z,-7.88
2019-01-23T04:33:22.580Z,-7.87
2019-01-23T04:35:53.791Z,-7.90
2019-01-23T04:38:25.201Z,-7.86
2019-01-23T04:40:56.367Z,-7.92
2019-01-23T04:43:27.467Z,-7.92
2019-01-23T04:45:58.683Z,-7.90
2019-01-23T04:48:30.175Z,-7.90
2019-01-23T04:51:12.240Z,-7.92
2019-01-23T04:53:45.079Z,-7.89
2019-01-23T04:56:15.891Z,-7.93
2019-01-23T04:58:46.797Z,-7.93
2019-01-23T05:01:17.548Z,-7.97
2019-01-23T05:03:48.511Z,-7.94
2019-01-23T05:06:19.160Z,-7.96
2019-01-23T05:08:49.892Z,-7.96
2019-01-23T05:11:20.995Z,-8.06
2019-01-23T05:13:52.552Z,-8.12
2019-01-23T05:16:23.265Z,-8.13
2019-01-23T05:18:54.091Z,-8.17
2019-01-23T05:21:25.648Z,-8.24
2019-01-23T05:23:56.666Z,-8.23
2019-01-23T05:26:27.443Z,-8.20
2019-01-23T05:28:58.470Z,-8.26
2019-01-23T05:31:29.489Z,-8.26
2019-01-23T05:34:00.571Z,-8.31
2019-01-23T05:36:31.347Z,-8.34
2019-01-23T05:39:02.392Z,-8.31
2019-01-23T05:41:33.387Z,-8.34
2019-01-23T05:44:04.818Z,-8.33
2019-01-23T05:46:37.156Z,-8.35
2019-01-23T05:49:08.330Z,-8.34
2019-01-23T05:51:39.030Z,-8.35
2019-01-23T05:54:09.766Z,-8.35
2019-01-23T05:56:41.466Z,-8.41
2019-01-23T05:59:12.548Z,-8.41
2019-01-23T06:01:44.156Z,-8.41
2019-01-23T06:04:14.973Z,-8.40
2019-01-23T06:06:45.987Z,-8.44
2019-01-23T06:09:16.961Z,-8.45
2019-01-23T06:11:47.738Z,-8.45
2019-01-23T06:14:18.766Z,-8.40
2019-01-23T06:16:49.493Z,-8.41
2019-01-23T06:19:20.224Z,-8.39
2019-01-23T06:21:50.976Z,-8.40
2019-01-23T06:24:21.785Z,-8.40
2019-01-23T06:26:52.873Z,-8.43
2019-01-23T06:29:23.952Z,-8.45
2019-01-23T06:31:54.646Z,-8.42
2019-01-23T06:34:26.555Z,-8.40
2019-01-23T06:36:57.524Z,-8.38
2019-01-23T06:39:28.876Z,-8.37
2019-01-23T06:41:59.939Z,-8.33
2019-01-23T06:44:30.643Z,-8.31
2019-01-23T06:47:01.923Z,-8.30
2019-01-23T06:49:32.659Z,-8.34
2019-01-23T06:52:05.497Z,-8.27
2019-01-23T06:54:36.509Z,-8.27
2019-01-23T06:57:07.671Z,-8.24
2019-01-23T06:59:38.945Z,-8.25
2019-01-23T07:02:09.695Z,-8.23
2019-01-23T07:04:40.814Z,-8.23
2019-01-23T07:07:11.527Z,-8.21
2019-01-23T07:09:42.413Z,-8.19
2019-01-23T07:12:13.204Z,-8.17
2019-01-23T07:14:44.117Z,-8.15
2019-01-23T07:17:15.359Z,-8.14
2019-01-23T07:19:46.399Z,-8.11
2019-01-23T07:22:17.491Z,-8.10
2019-01-23T07:24:48.146Z,-8.10
2019-01-23T07:27:18.965Z,-8.09
2019-01-23T07:29:49.598Z,-8.02
2019-01-23T07:32:20.526Z,-8.02
2019-01-23T07:34:51.262Z,-8.01
2019-01-23T07:37:22.079Z,-7.96
2019-01-23T07:39:52.802Z,-7.94
2019-01-23T07:42:23.957Z,-7.90
2019-01-23T07:44:54.785Z,-7.88
2019-01-23T07:47:25.870Z,-7.85
2019-01-23T07:49:56.979Z,-7.84
2019-01-23T07:52:28.056Z,-7.84
2019-01-23T07:54:59.127Z,-7.78
2019-01-23T07:57:30.503Z,-7.75
2019-01-23T08:00:01.548Z,-7.73
2019-01-23T08:02:32.238Z,-7.65
2019-01-23T08:05:03.557Z,-7.60
2019-01-23T08:07:34.301Z,-7.56
2019-01-23T08:10:06.349Z,-7.51
2019-01-23T08:12:37.362Z,-7.44
2019-01-23T08:15:15.570Z,-7.37
2019-01-23T08:17:46.299Z,-7.31
2019-01-23T08:20:18.886Z,-7.24
2019-01-23T08:22:49.620Z,-7.15
2019-01-23T08:25:20.940Z,-7.07
2019-01-23T08:27:51.745Z,-7.02
2019-01-23T08:30:22.719Z,-6.95
2019-01-23T08:32:53.865Z,-6.88
2019-01-23T08:35:24.763Z,-6.83
2019-01-23T08:37:56.174Z,-6.78
2019-01-23T08:40:26.952Z,-6.72
2019-01-23T08:42:58.174Z,-6.63
2019-01-23T08:45:28.831Z,-6.66
2019-01-23T08:47:59.555Z,-6.58
2019-01-23T08:50:43.006Z,-6.56
2019-01-23T08:53:14.251Z,-6.49
2019-01-23T08:55:44.910Z,-6.48
2019-01-23T08:58:16.309Z,-6.39
2019-01-23T09:00:47.665Z,-6.41
2019-01-23T09:03:18.309Z,-6.30
2019-01-23T09:05:49.290Z,-6.21
2019-01-23T09:08:20.330Z,-6.20
2019-01-23T09:10:51.377Z,-6.14
2019-01-23T09:13:22.555Z,-6.08
2019-01-23T09:15:53.499Z,-6.11
2019-01-23T09:18:24.237Z,-6.07
2019-01-23T09:20:55.920Z,-6.08
2019-01-23T09:23:26.955Z,-6.08
2019-01-23T09:25:57.694Z,-6.16
2019-01-23T09:28:28.414Z,-5.91
2019-01-23T09:31:59.378Z,-5.93
2019-01-23T09:35:40.887Z,-5.78
2019-01-23T09:39:24.236Z,-5.76
2019-01-23T09:43:01.689Z,-5.71
2019-01-23T09:46:00.017Z,-5.65
2019-01-23T09:49:14.155Z,-5.81
2019-01-23T09:52:54.123Z,-5.66
2019-01-23T09:55:25.245Z,-5.51
2019-01-23T09:58:00.041Z,-5.42
2019-01-23T10:00:31.828Z,-5.41
2019-01-23T10:03:02.882Z,-5.53
2019-01-23T10:05:33.957Z,-5.47
2019-01-23T10:08:05.577Z,-5.40
2019-01-23T10:10:36.584Z,-5.38
2019-01-23T10:13:07.346Z,-5.51
2019-01-23T10:15:54.147Z,-5.57
2019-01-23T10:18:24.859Z,-5.58
2019-01-23T10:20:55.901Z,-5.53
2019-01-23T10:23:27.485Z,-5.46
2019-01-23T10:25:58.316Z,-5.53
2019-01-23T10:28:29.234Z,-5.49
2019-01-23T10:31:06.417Z,-5.34
2019-01-23T10:33:33.117Z,-5.48
2019-01-23T10:36:04.562Z,-5.39
2019-01-23T10:38:35.717Z,-5.53
2019-01-23T10:41:07.425Z,-5.47
2019-01-23T10:43:38.552Z,-5.42
2019-01-23T10:46:09.624Z,-5.33
2019-01-23T10:48:40.587Z,-5.31
2019-01-23T10:51:12.124Z,-5.40
2019-01-23T10:53:43.206Z,-5.31
2019-01-23T10:56:15.530Z,-5.20
2019-01-23T10:58:51.938Z,-5.24
2019-01-23T11:01:23.831Z,-5.49
2019-01-23T11:03:55.040Z,-5.39
2019-01-23T11:06:25.860Z,-5.15
2019-01-23T11:08:58.414Z,-5.18
2019-01-23T11:11:29.134Z,-5.14
2019-01-23T11:14:00.299Z,-4.99
2019-01-23T11:16:31.421Z,-4.88
2019-01-23T11:19:03.326Z,-4.84
2019-01-23T11:21:33.979Z,-4.62
2019-01-23T11:24:05.671Z,-4.49
2019-01-23T11:26:36.510Z,-4.40
2019-01-23T11:29:07.311Z,-4.36
2019-01-23T11:31:38.041Z,-4.26
2019-01-23T11:34:08.910Z,-4.32
2019-01-23T11:36:39.629Z,-4.32
2019-01-23T11:39:22.744Z,-4.26
2019-01-23T11:41:55.904Z,-4.24
2019-01-23T11:44:26.655Z,-4.13
2019-01-23T11:46:57.723Z,-4.09
2019-01-23T11:49:28.863Z,-4.18
2019-01-23T11:52:00.111Z,-4.17
2019-01-23T11:54:30.889Z,-4.18
2019-01-23T11:57:01.635Z,-4.19
2019-01-23T11:59:32.372Z,-4.06
2019-01-23T12:02:03.158Z,-4.13
2019-01-23T12:04:34.183Z,-4.08
2019-01-23T12:07:05.306Z,-3.94
2019-01-23T12:09:36.371Z,-4.03
2019-01-23T12:12:07.516Z,-4.05
2019-01-23T12:14:38.192Z,-4.22
2019-01-23T12:17:09.462Z,-4.03
2019-01-23T12:19:40.468Z,-4.01
2019-01-23T12:22:11.238Z,-4.03
2019-01-23T12:24:42.263Z,-3.98
2019-01-23T12:27:13.343Z,-3.88
2019-01-23T12:29:44.335Z,-3.88
2019-01-23T12:32:15.133Z,-4.15
2019-01-23T12:34:45.911Z,-3.95
2019-01-23T12:37:17.202Z,-3.96
2019-01-23T12:39:48.828Z,-3.70
2019-01-23T12:42:19.484Z,-3.70
2019-01-23T12:44:50.125Z,-3.82
2019-01-23T12:47:21.233Z,-3.85
2019-01-23T12:49:52.364Z,-3.77
2019-01-23T12:52:23.702Z,-3.77
2019-01-23T12:54:54.559Z,-3.92
2019-01-23T12:57:25.318Z,-3.76
2019-01-23T12:59:56.395Z,-3.92
2019-01-23T13:02:27.240Z,-3.96
2019-01-23T13:04:58.546Z,-3.88
2019-01-23T13:07:33.400Z,-3.91
2019-01-23T13:10:01.658Z,-3.82
2019-01-23T13:12:32.575Z,-3.72
2019-01-23T13:15:03.299Z,-3.80
2019-01-23T13:17:34.077Z,-3.70
2019-01-23T13:20:05.933Z,-3.82
2019-01-23T13:22:36.662Z,-3.65
2019-01-23T13:25:11.421Z,-3.70
2019-01-23T13:27:42.413Z,-3.66
2019-01-23T13:30:17.215Z,-3.68
2019-01-23T13:32:48.278Z,-3.72
2019-01-23T13:35:22.903Z,-3.94
2019-01-23T13:37:53.901Z,-3.76
2019-01-23T13:40:33.931Z,-3.76
2019-01-23T13:43:05.835Z,-3.82
2019-01-23T13:45:36.561Z,-3.76
2019-01-23T13:48:09.506Z,-3.68
2019-01-23T13:50:40.442Z,-3.79
2019-01-23T13:53:11.999Z,-3.77
2019-01-23T13:55:43.046Z,-3.59
2019-01-23T13:58:13.775Z,-3.62
2019-01-23T14:00:44.783Z,-3.59
2019-01-23T14:03:16.680Z,-3.52
2019-01-23T14:05:47.413Z,-3.68
2019-01-23T14:08:18.087Z,-3.80
2019-01-23T14:10:48.855Z,-3.84
2019-01-23T14:13:19.891Z,-3.78
2019-01-23T14:15:50.942Z,-3.81
2019-01-23T14:18:22.188Z,-3.82
2019-01-23T14:20:52.895Z,-3.82
2019-01-23T14:23:23.734Z,-3.82
2019-01-23T14:25:55.103Z,-3.92
2019-01-23T14:28:26.221Z,-3.87
2019-01-23T14:30:57.719Z,-3.85
2019-01-23T14:33:28.518Z,-3.96
2019-01-23T14:35:59.342Z,-4.05
2019-01-23T14:38:30.688Z,-4.10
2019-01-23T14:41:01.790Z,-4.19
2019-01-23T14:43:32.495Z,-4.14
2019-01-23T14:46:03.601Z,-4.15
2019-01-23T14:48:34.359Z,-4.11
2019-01-23T14:51:05.157Z,-4.01
2019-01-23T14:53:36.460Z,-3.96
2019-01-23T14:56:07.277Z,-3.99
2019-01-23T14:58:37.995Z,-3.89
2019-01-23T15:01:08.711Z,-3.85
2019-01-23T15:03:40.041Z,-3.77
2019-01-23T15:06:11.088Z,-3.80
2019-01-23T15:08:41.832Z,-3.83
2019-01-23T15:11:12.802Z,-3.86
2019-01-23T15:13:43.694Z,-3.82
2019-01-23T15:16:14.890Z,-3.82
2019-01-23T15:18:46.329Z,-3.84
2019-01-23T15:21:17.405Z,-3.82
2019-01-23T15:23:48.223Z,-3.84
2019-01-23T15:26:19.076Z,-3.88
2019-01-23T15:28:49.860Z,-3.91
2019-01-23T15:31:21.596Z,-3.88
2019-01-23T15:33:52.362Z,-3.92
2019-01-23T15:36:23.094Z,-3.99
2019-01-23T15:38:54.095Z,-4.02
2019-01-23T15:41:25.912Z,-4.08
2019-01-23T15:43:56.638Z,-4.06
2019-01-23T15:46:27.362Z,-4.09
2019-01-23T15:48:58.060Z,-4.05
2019-01-23T15:51:29.018Z,-4.02
2019-01-23T15:54:00.351Z,-4.02
2019-01-23T15:56:31.369Z,-4.05
2019-01-23T15:59:02.166Z,-3.99
2019-01-23T16:01:32.867Z,-4.03
2019-01-23T16:04:03.573Z,-4.02
2019-01-23T16:06:34.208Z,-4.04
2019-01-23T16:13:23.244Z,-3.96
2019-01-23T16:15:53.985Z,-3.97
2019-01-23T16:18:24.946Z,-3.94
2019-01-23T16:20:56.923Z,-4.00
2019-01-23T16:23:27.845Z,-3.97
2019-01-23T16:25:58.485Z,-4.02
2019-01-23T16:28:29.165Z,-4.05
2019-01-23T16:30:59.805Z,-4.06
2019-01-23T16:33:30.485Z,-4.04
2019-01-23T16:36:01.451Z,-4.09
2019-01-23T16:38:32.901Z,-4.09
2019-01-23T16:41:04.107Z,-4.12
2019-01-23T16:43:34.780Z,-4.12
2019-01-23T16:46:05.476Z,-4.17
2019-01-23T16:48:36.105Z,-4.17
2019-01-23T16:51:07.151Z,-4.18
2019-01-23T16:53:38.717Z,-4.15
2019-01-23T16:56:10.339Z,-4.14
2019-01-23T16:58:41.342Z,-4.15
2019-01-23T17:01:12.650Z,-4.19
2019-01-23T17:03:43.580Z,-4.23
2019-01-23T17:06:14.357Z,-4.26
2019-01-23T17:08:44.945Z,-4.33
2019-01-23T17:11:15.836Z,-4.38
2019-01-23T17:13:46.799Z,-4.51
2019-01-23T17:16:17.462Z,-4.51
2019-01-23T17:18:48.051Z,-4.55
2019-01-23T17:21:19.147Z,-4.66
2019-01-23T17:23:50.055Z,-4.63
2019-01-23T17:26:21.021Z,-4.73
2019-01-23T17:28:52.358Z,-4.84
2019-01-23T17:31:23.389Z,-4.86
2019-01-23T17:33:54.369Z,-4.95
2019-01-23T17:36:25.398Z,-4.99
2019-01-23T17:38:56.380Z,-5.06
2019-01-23T17:41:27.339Z,-5.04
2019-01-23T17:43:58.693Z,-5.10
2019-01-23T17:46:30.313Z,-5.17
2019-01-23T17:49:01.303Z,-5.11
2019-01-23T17:51:32.317Z,-5.15
2019-01-23T17:54:03.504Z,-5.18
2019-01-23T17:56:34.429Z,-5.20
2019-01-23T17:59:05.096Z,-5.23
2019-01-23T18:01:36.549Z,-5.23
2019-01-23T18:04:08.319Z,-5.25
2019-01-23T18:06:39.666Z,-5.23
2019-01-23T18:09:11.572Z,-5.23
2019-01-23T18:11:42.529Z,-5.23
2019-01-23T18:14:14.296Z,-5.23
2019-01-23T18:16:45.622Z,-5.23
2019-01-23T18:19:16.621Z,-5.24
2019-01-23T18:21:48.259Z,-5.29
2019-01-23T18:24:19.227Z,-5.26
2019-01-23T18:26:50.178Z,-5.26
2019-01-23T18:29:22.318Z,-5.25
2019-01-23T18:32:00.674Z,-5.27
2019-01-23T18:35:49.721Z,-5.29
2019-01-23T18:39:05.320Z,-5.26
2019-01-23T18:42:20.333Z,-5.25
2019-01-23T18:45:47.318Z,-5.28
2019-01-23T18:49:22.840Z,-5.30
2019-01-23T18:52:06.927Z,-5.28
2019-01-23T18:54:37.557Z,-5.32
2019-01-23T18:57:11.349Z,-5.34
2019-01-23T18:59:43.129Z,-5.38
2019-01-23T19:02:14.596Z,-5.44
2019-01-23T19:04:45.558Z,-5.44
2019-01-23T19:07:16.586Z,-5.43
2019-01-23T19:09:47.607Z,-5.31
2019-01-23T19:12:18.766Z,-5.37
2019-01-23T19:14:49.735Z,-5.45
2019-01-23T19:17:20.735Z,-5.43
2019-01-23T19:19:52.051Z,-5.41
2019-01-23T19:22:23.128Z,-5.45
2019-01-23T19:24:54.381Z,-5.47
2019-01-23T19:27:25.384Z,-5.45
2019-01-23T19:29:56.401Z,-5.49
2019-01-23T19:32:27.068Z,-5.52
2019-01-23T19:34:58.015Z,-5.49
2019-01-23T19:37:28.622Z,-5.43
2019-01-23T19:39:59.513Z,-5.44
2019-01-23T19:42:30.520Z,-5.46
2019-01-23T19:45:01.477Z,-5.52
2019-01-23T19:47:32.429Z,-5.62
2019-01-23T19:50:04.573Z,-5.51
2019-01-23T19:52:35.527Z,-5.59
2019-01-23T19:55:07.728Z,-5.65
2019-01-23T19:57:38.384Z,-5.64
2019-01-23T20:00:15.371Z,-5.65
2019-01-23T20:02:46.212Z,-5.60
2019-01-23T20:05:21.425Z,-5.64
2019-01-23T20:07:52.312Z,-5.60
2019-01-23T20:10:24.281Z,-5.74
2019-01-23T20:12:54.949Z,-5.73
2019-01-23T20:15:25.683Z,-5.71
2019-01-23T20:18:01.039Z,-5.79
2019-01-23T20:20:31.706Z,-5.85
2019-01-23T20:23:02.739Z,-5.76
2019-01-23T20:25:33.468Z,-5.87
2019-01-23T20:28:07.396Z,-5.87
2019-01-23T20:30:41.002Z,-5.93
2019-01-23T20:33:11.606Z,-5.84
2019-01-23T20:35:42.307Z,-5.92
2019-01-23T20:38:13.011Z,-6.01
2019-01-23T20:40:43.613Z,-6.05
2019-01-23T20:43:14.262Z,-6.14
2019-01-23T20:45:44.866Z,-6.27
2019-01-23T20:48:15.594Z,-6.15
2019-01-23T20:50:46.548Z,-6.27
2019-01-23T20:53:17.182Z,-6.28
2019-01-23T20:55:48.080Z,-6.25
2019-01-23T20:58:18.757Z,-6.26
2019-01-23T21:00:49.389Z,-6.26
2019-01-23T21:03:20.907Z,-6.37
2019-01-23T21:05:52.277Z,-6.25
2019-01-23T21:08:22.957Z,-6.38
2019-01-23T21:10:53.574Z,-6.37
2019-01-23T21:13:24.629Z,-6.32
2019-01-23T21:15:55.294Z,-6.42
2019-01-23T21:18:25.885Z,-6.39
2019-01-23T21:20:56.463Z,-6.37
2019-01-23T21:23:27.359Z,-6.46
2019-01-23T21:25:57.926Z,-6.33
2019-01-23T21:28:28.593Z,-6.41
2019-01-23T21:30:59.307Z,-6.39
2019-01-23T21:33:30.227Z,-6.45
2019-01-23T21:36:00.856Z,-6.45
2019-01-23T21:38:31.728Z,-6.50
2019-01-23T21:41:02.340Z,-6.51
2019-01-23T21:43:33.068Z,-6.50
2019-01-23T21:46:03.963Z,-6.51
2019-01-23T21:48:34.575Z,-6.53
2019-01-23T21:51:05.857Z,-6.50
2019-01-23T21:53:36.464Z,-6.52
2019-01-23T21:56:07.199Z,-6.44
2019-01-23T21:58:37.849Z,-6.51
2019-01-23T22:01:08.494Z,-6.63
2019-01-23T22:03:39.148Z,-6.69
2019-01-23T22:06:09.952Z,-6.82
2019-01-23T22:08:40.551Z,-6.81
2019-01-23T22:11:11.822Z,-6.87
2019-01-23T22:13:42.774Z,-6.83
2019-01-23T22:16:13.434Z,-6.86
2019-01-23T22:18:44.257Z,-7.01
2019-01-23T22:21:18.814Z,-7.11
2019-01-23T22:23:50.979Z,-7.00
2019-01-23T22:26:21.875Z,-7.00
2019-01-23T22:28:52.556Z,-6.99
2019-01-23T22:31:25.060Z,-7.01
2019-01-23T22:33:56.766Z,-7.08
2019-01-23T22:36:27.809Z,-7.06
2019-01-23T22:38:58.682Z,-6.92
2019-01-23T22:41:29.303Z,-6.97
2019-01-23T22:44:00.242Z,-6.95
2019-01-23T22:46:31.137Z,-6.93
2019-01-23T22:49:01.820Z,-6.76
2019-01-23T22:51:32.795Z,-6.79
2019-01-23T22:54:03.706Z,-6.81
2019-01-23T22:56:34.384Z,-6.75
2019-01-23T22:59:05.404Z,-6.81
2019-01-23T23:01:36.061Z,-6.77
2019-01-23T23:04:06.700Z,-6.77
2019-01-23T23:06:37.287Z,-6.81
2019-01-23T23:09:10.903Z,-6.77
2019-01-23T23:11:41.574Z,-6.72
2019-01-23T23:14:13.329Z,-6.64
2019-01-23T23:16:44.282Z,-6.70
2019-01-23T23:19:14.884Z,-6.71
2019-01-23T23:21:45.558Z,-6.69
2019-01-23T23:24:16.081Z,-6.69
2019-01-23T23:26:46.543Z,-6.78
2019-01-23T23:29:17.491Z,-6.77
2019-01-23T23:31:48.021Z,-6.76
2019-01-23T23:34:18.641Z,-6.72
2019-01-23T23:36:51.199Z,-6.75
2019-01-23T23:39:22.020Z,-6.74
2019-01-23T23:41:52.708Z,-6.74
2019-01-23T23:44:23.692Z,-6.73
2019-01-23T23:46:55.573Z,-6.65
2019-01-23T23:49:26.230Z,-6.72
2019-01-23T23:51:58.031Z,-6.72
2019-01-23T23:54:29.480Z,-6.61
2019-01-23T23:57:02.565Z,-6.60
2019-01-23T23:59:33.224Z,-6.62
